Time;durP1;ratioP1;P1;durP2;ratioP2;P2;SDS_P1;SDS_P2;PMS_P1;PMS_P2;Temp;Humidity;BMP_temperature;BMP_pressure;BME280_temperature;BME280_humidity;BME280_pressure;Samples;Min_cycle;Max_cycle;Signal;HPM_P1;HPM_P2
2023/09/14 06:12:32;;;;;;;;;;;23.00;92.90;;;;;;5304853;23;5172469;-66
2023/09/14 06:14:58;;;;;;;;;;;23.10;93.10;;;;;;4976888;28;19994;-63
2023/09/14 06:17:23;;;;;;;;;;;23.20;93.00;;;;;;4955418;28;19992;-67
2023/09/14 06:19:49;;;;;;;;;;;23.20;92.40;;;;;;4977451;28;19987;-70
2023/09/14 06:22:14;;;;;;;;;;;23.30;92.00;;;;;;4977335;28;19998;-72
2023/09/14 06:24:40;;;;;;;;;;;23.40;91.20;;;;;;4978276;28;19989;-67
2023/09/14 06:27:05;;;;;;;;;;;23.60;90.70;;;;;;4977324;28;20005;-64
2023/09/14 06:29:31;;;;;;;;;;;23.80;90.20;;;;;;4977708;28;20487;-69
2023/09/14 06:31:56;;;;;;;;;;;24.10;88.60;;;;;;4977835;28;19993;-67
2023/09/14 06:34:22;;;;;;;;;;;24.60;86.60;;;;;;4977513;28;19983;-64
2023/09/14 06:36:48;;;;;;;;;;;25.00;82.00;;;;;;4959519;28;20357;-64
2023/09/14 06:39:14;;;;;;;;;;;25.40;79.30;;;;;;4940969;29;20077;-67
2023/09/14 06:41:40;;;;;;;;;;;26.50;71.70;;;;;;4958744;28;19987;-70
2023/09/14 06:44:05;;;;;;;;;;;27.40;67.80;;;;;;4960240;28;19998;-66
2023/09/14 06:46:31;;;;;;;;;;;27.60;65.20;;;;;;4971368;28;20441;-66
2023/09/14 06:48:57;;;;;;;;;;;29.00;60.50;;;;;;4972893;28;20030;-70
2023/09/14 06:51:22;;;;;;;;;;;30.70;54.60;;;;;;4956589;28;20018;-66
2023/09/14 06:53:48;;;;;;;;;;;32.20;49.90;;;;;;4976810;28;20071;-67
2023/09/14 06:56:15;;;;;;;;;;;33.60;48.00;;;;;;4975371;28;19987;-68
2023/09/14 06:58:40;;;;;;;;;;;35.00;45.10;;;;;;4963360;28;20014;-71
2023/09/14 07:01:06;;;;;;;;;;;35.80;42.50;;;;;;4973454;28;20429;-66
2023/09/14 07:03:32;;;;;;;;;;;36.70;40.40;;;;;;4973347;28;19983;-68
2023/09/14 07:05:58;;;;;;;;;;;36.80;39.70;;;;;;4960927;28;20441;-68
2023/09/14 07:08:24;;;;;;;;;;;37.60;38.30;;;;;;4957056;29;20066;-65
2023/09/14 07:10:50;;;;;;;;;;;38.00;36.80;;;;;;4956978;28;20003;-68
2023/09/14 07:13:15;;;;;;;;;;;38.50;37.60;;;;;;4952561;28;20015;-64
2023/09/14 07:15:41;;;;;;;;;;;38.80;36.80;;;;;;4942784;28;20334;-68
2023/09/14 07:18:07;;;;;;;;;;;38.00;36.20;;;;;;4957145;29;20346;-67
2023/09/14 07:20:32;;;;;;;;;;;37.80;37.40;;;;;;4957785;29;19983;-64
2023/09/14 07:22:58;;;;;;;;;;;37.90;37.40;;;;;;4956826;29;19991;-66
2023/09/14 07:25:24;;;;;;;;;;;37.50;37.30;;;;;;4956543;29;20354;-65
2023/09/14 07:27:50;;;;;;;;;;;38.40;36.70;;;;;;4956041;29;19991;-68
2023/09/14 07:30:15;;;;;;;;;;;39.40;35.80;;;;;;4939444;29;20524;-66
2023/09/14 07:32:41;;;;;;;;;;;39.90;34.30;;;;;;4957129;29;19994;-69
2023/09/14 07:35:07;;;;;;;;;;;40.10;34.10;;;;;;4957023;29;19983;-68
2023/09/14 07:37:33;;;;;;;;;;;40.50;34.00;;;;;;4954087;28;19999;-64
2023/09/14 07:39:59;;;;;;;;;;;40.40;33.00;;;;;;4946138;29;19995;-68
2023/09/14 07:42:24;;;;;;;;;;;40.00;33.50;;;;;;4956007;29;20417;-67
2023/09/14 07:44:50;;;;;;;;;;;39.30;33.20;;;;;;4954520;29;20409;-72
2023/09/14 07:47:16;;;;;;;;;;;37.90;34.10;;;;;;4941200;29;19988;-65
2023/09/14 07:49:45;;;;;;;;;;;38.00;34.90;;;;;;4956295;29;20011;-68
2023/09/14 07:52:11;;;;;;;;;;;37.40;34.90;;;;;;4947002;29;20019;-70
2023/09/14 07:54:36;;;;;;;;;;;36.20;35.50;;;;;;4950377;29;19988;-63
2023/09/14 07:57:02;;;;;;;;;;;34.40;37.70;;;;;;4954460;29;20290;-67
2023/09/14 07:59:28;;;;;;;;;;;33.40;40.30;;;;;;4954956;29;20442;-67
2023/09/14 08:01:53;;;;;;;;;;;32.80;41.70;;;;;;4952558;28;19995;-70
2023/09/14 08:04:19;;;;;;;;;;;32.30;41.90;;;;;;4955851;29;20034;-69
2023/09/14 08:06:44;;;;;;;;;;;31.70;43.60;;;;;;4955493;29;19983;-69
2023/09/14 08:09:10;;;;;;;;;;;31.20;45.10;;;;;;4955261;29;20507;-66
2023/09/14 08:11:36;;;;;;;;;;;30.80;45.40;;;;;;4942130;29;19991;-72
2023/09/14 08:14:02;;;;;;;;;;;30.50;45.00;;;;;;4947061;29;19995;-63
2023/09/14 08:16:32;;;;;;;;;;;30.00;47.80;;;;;;4955010;29;20046;-69
2023/09/14 08:18:58;;;;;;;;;;;29.80;46.60;;;;;;4954105;29;20072;-66
2023/09/14 08:21:23;;;;;;;;;;;29.60;47.10;;;;;;4955283;29;20422;-64
2023/09/14 08:23:49;;;;;;;;;;;29.20;48.10;;;;;;4953448;29;20033;-68
2023/09/14 08:26:14;;;;;;;;;;;28.90;48.80;;;;;;4954186;28;20357;-66
2023/09/14 08:28:40;;;;;;;;;;;28.80;48.80;;;;;;4943499;29;19992;-65
2023/09/14 08:31:06;;;;;;;;;;;28.80;49.00;;;;;;4944736;29;20092;-68
2023/09/14 08:33:32;;;;;;;;;;;28.90;49.50;;;;;;4937431;28;19999;-68
2023/09/14 08:35:57;;;;;;;;;;;28.90;49.20;;;;;;4939150;29;20042;-66
2023/09/14 08:38:25;;;;;;;;;;;28.90;50.40;;;;;;4935511;29;20074;-66
2023/09/14 08:40:56;;;;;;;;;;;28.90;50.10;;;;;;4940265;29;20007;-76
2023/09/14 08:43:22;;;;;;;;;;;28.90;49.90;;;;;;4952384;28;20034;-67
2023/09/14 08:45:50;;;;;;;;;;;28.90;51.20;;;;;;4948378;29;20438;-62
2023/09/14 08:48:17;;;;;;;;;;;28.90;51.50;;;;;;4949215;29;19990;-67
2023/09/14 08:50:43;;;;;;;;;;;29.00;50.90;;;;;;4952739;29;20011;-65
2023/09/14 08:53:11;;;;;;;;;;;28.80;51.00;;;;;;4948387;29;19994;-68
2023/09/14 08:55:38;;;;;;;;;;;28.70;53.10;;;;;;4949031;29;20074;-67
2023/09/14 08:58:04;;;;;;;;;;;28.60;51.90;;;;;;4942045;29;20442;-63
2023/09/14 09:00:30;;;;;;;;;;;28.60;52.50;;;;;;4933501;29;19992;-65
2023/09/14 09:02:56;;;;;;;;;;;28.60;51.40;;;;;;4949094;29;19991;-66
2023/09/14 09:05:24;;;;;;;;;;;28.50;51.90;;;;;;4952814;29;19994;-68
2023/09/14 09:07:50;;;;;;;;;;;28.50;52.00;;;;;;4949158;28;19992;-67
2023/09/14 09:10:16;;;;;;;;;;;28.70;52.20;;;;;;4951975;29;20008;-65
2023/09/14 09:12:51;;;;;;;;;;;28.60;52.40;;;;;;4951874;28;20022;-69
2023/09/14 09:15:17;;;;;;;;;;;28.70;52.40;;;;;;4935534;29;20046;-64
2023/09/14 09:17:46;;;;;;;;;;;28.80;53.50;;;;;;4948977;28;19992;-66
2023/09/14 09:20:19;;;;;;;;;;;28.80;52.50;;;;;;4951422;28;20074;-64
2023/09/14 09:22:45;;;;;;;;;;;28.90;51.80;;;;;;4952802;29;20093;-67
2023/09/14 09:25:11;;;;;;;;;;;29.00;51.50;;;;;;4942997;29;19991;-68
2023/09/14 09:27:40;;;;;;;;;;;28.90;51.30;;;;;;4953691;29;20090;-65
2023/09/14 09:30:06;;;;;;;;;;;28.90;52.70;;;;;;4940605;29;20450;-61
2023/09/14 09:32:32;;;;;;;;;;;29.00;53.20;;;;;;4934352;29;20039;-66
2023/09/14 09:35:18;;;;;;;;;;;29.20;52.60;;;;;;4933882;29;20454;-67
2023/09/14 09:37:44;;;;;;;;;;;29.30;52.10;;;;;;4932038;29;20011;-67
2023/09/14 09:40:20;;;;;;;;;;;29.60;53.30;;;;;;4938060;29;19984;-61
2023/09/14 09:42:49;;;;;;;;;;;29.80;50.60;;;;;;4955698;29;19987;-68
2023/09/14 09:45:14;;;;;;;;;;;30.00;49.80;;;;;;4954186;29;19995;-62
2023/09/14 09:47:41;;;;;;;;;;;30.30;48.70;;;;;;4956194;29;20015;-65
2023/09/14 09:50:10;;;;;;;;;;;30.40;49.30;;;;;;4957047;29;20007;-64
2023/09/14 09:52:37;;;;;;;;;;;30.50;48.20;;;;;;4957795;29;19991;-68
2023/09/14 09:55:04;;;;;;;;;;;30.60;48.90;;;;;;4956716;29;19991;-63
2023/09/14 09:57:30;;;;;;;;;;;30.60;49.30;;;;;;4956722;29;20443;-70
2023/09/14 09:59:57;;;;;;;;;;;30.50;47.70;;;;;;4956529;29;19987;-71
2023/09/14 10:02:32;;;;;;;;;;;30.70;46.60;;;;;;4957887;29;20090;-64
2023/09/14 10:05:01;;;;;;;;;;;30.90;49.00;;;;;;4957305;29;19998;-67
2023/09/14 10:07:26;;;;;;;;;;;31.10;45.80;;;;;;4957227;29;20081;-67
2023/09/14 10:09:55;;;;;;;;;;;31.00;46.90;;;;;;4956411;29;20105;-68
2023/09/14 10:12:24;;;;;;;;;;;31.10;47.00;;;;;;4957065;28;20015;-72
2023/09/14 10:14:54;;;;;;;;;;;31.10;48.20;;;;;;4956067;29;19999;-65
2023/09/14 10:17:21;;;;;;;;;;;31.00;49.00;;;;;;4956658;29;19996;-69
2023/09/14 10:19:47;;;;;;;;;;;31.00;47.70;;;;;;4957930;29;20022;-67
2023/09/14 10:22:14;;;;;;;;;;;30.90;47.60;;;;;;4957464;29;20475;-65
2023/09/14 10:24:40;;;;;;;;;;;31.00;46.70;;;;;;4957727;29;19994;-70
2023/09/14 10:27:07;;;;;;;;;;;30.90;45.50;;;;;;4955373;29;19987;-64
2023/09/14 10:29:34;;;;;;;;;;;31.00;45.70;;;;;;4955953;29;20004;-71
2023/09/14 10:32:00;;;;;;;;;;;31.00;45.70;;;;;;4956890;29;20390;-70
2023/09/14 10:34:28;;;;;;;;;;;31.10;46.30;;;;;;4954854;29;20450;-69
2023/09/14 10:36:54;;;;;;;;;;;31.20;46.30;;;;;;4956563;29;20073;-66
2023/09/14 10:39:22;;;;;;;;;;;31.30;46.30;;;;;;4955448;29;20073;-67
2023/09/14 10:41:47;;;;;;;;;;;31.50;47.10;;;;;;4955807;29;20078;-62
2023/09/14 10:44:14;;;;;;;;;;;31.60;44.00;;;;;;4956553;29;20090;-71
2023/09/14 10:46:42;;;;;;;;;;;31.70;43.70;;;;;;4956279;29;19987;-66
2023/09/14 10:49:08;;;;;;;;;;;31.80;45.40;;;;;;4955005;28;20008;-68
2023/09/14 10:51:34;;;;;;;;;;;31.70;43.70;;;;;;4952005;29;20046;-67
2023/09/14 10:54:00;;;;;;;;;;;31.40;43.30;;;;;;4940826;29;19992;-62
2023/09/14 10:56:33;;;;;;;;;;;31.30;44.30;;;;;;4937609;29;19988;-65
2023/09/14 10:59:05;;;;;;;;;;;31.30;44.10;;;;;;4936277;29;20298;-65
2023/09/14 11:01:30;;;;;;;;;;;31.20;45.90;;;;;;4936483;29;20078;-68
2023/09/14 11:04:05;;;;;;;;;;;31.10;46.60;;;;;;4937018;29;20450;-68
2023/09/14 11:06:50;;;;;;;;;;;31.10;45.00;;;;;;4936662;29;20104;-63
2023/09/14 11:09:16;;;;;;;;;;;31.00;45.70;;;;;;4936434;29;20007;-61
2023/09/14 11:11:46;;;;;;;;;;;30.90;45.50;;;;;;4937439;29;20042;-61
2023/09/14 11:14:13;;;;;;;;;;;31.10;46.70;;;;;;4948851;29;19996;-68
2023/09/14 11:17:05;;;;;;;;;;;31.50;47.30;;;;;;4936211;29;19984;-67
2023/09/14 11:19:31;;;;;;;;;;;31.80;44.40;;;;;;4935339;29;20043;-65
2023/09/14 11:22:04;;;;;;;;;;;32.10;43.70;;;;;;4948593;29;20353;-65
2023/09/14 11:24:33;;;;;;;;;;;32.40;45.20;;;;;;4951195;29;20074;-62
2023/09/14 11:26:59;;;;;;;;;;;32.60;43.60;;;;;;4940880;29;19991;-67
2023/09/14 11:29:27;;;;;;;;;;;32.60;43.50;;;;;;4954514;29;20074;-64
2023/09/14 11:32:11;;;;;;;;;;;32.60;43.30;;;;;;4937200;29;20041;-69
2023/09/14 11:34:37;;;;;;;;;;;32.50;45.00;;;;;;4955816;29;19983;-63
2023/09/14 11:37:05;;;;;;;;;;;32.90;41.00;;;;;;4948022;29;19991;-64
2023/09/14 11:39:31;;;;;;;;;;;33.10;39.30;;;;;;4939529;29;20409;-67
2023/09/14 11:42:00;;;;;;;;;;;33.10;40.50;;;;;;4947323;29;20350;-66
2023/09/14 11:44:29;;;;;;;;;;;33.50;41.00;;;;;;4950583;29;20082;-65
2023/09/14 11:47:01;;;;;;;;;;;34.00;40.90;;;;;;4956743;29;20473;-66
2023/09/14 11:49:28;;;;;;;;;;;34.20;38.70;;;;;;4956082;29;20007;-65
2023/09/14 11:51:54;;;;;;;;;;;34.00;37.00;;;;;;4956063;29;20516;-65
2023/09/14 11:54:20;;;;;;;;;;;34.10;38.50;;;;;;4955850;29;20023;-60
2023/09/14 11:56:46;;;;;;;;;;;34.50;38.30;;;;;;4956190;29;20030;-67
2023/09/14 11:59:11;;;;;;;;;;;34.70;37.60;;;;;;4955820;29;19992;-65
2023/09/14 12:01:37;;;;;;;;;;;35.00;37.40;;;;;;4954972;28;20082;-62
2023/09/14 12:04:04;;;;;;;;;;;34.90;38.00;;;;;;4955826;29;20107;-66
2023/09/14 12:06:30;;;;;;;;;;;34.90;38.50;;;;;;4956200;29;19997;-62
2023/09/14 12:08:55;;;;;;;;;;;34.90;36.90;;;;;;4955968;29;20427;-68
2023/09/14 12:11:22;;;;;;;;;;;35.10;37.50;;;;;;4956320;29;19988;-68
2023/09/14 12:13:56;;;;;;;;;;;35.20;37.50;;;;;;4955926;28;20073;-63
2023/09/14 12:16:23;;;;;;;;;;;35.30;36.20;;;;;;4956150;29;19987;-68
2023/09/14 12:18:50;;;;;;;;;;;35.30;35.70;;;;;;4956650;29;20345;-64
2023/09/14 12:21:15;;;;;;;;;;;35.40;38.30;;;;;;4956536;29;20078;-67
2023/09/14 12:23:43;;;;;;;;;;;35.40;36.50;;;;;;4956277;29;20050;-70
2023/09/14 12:26:11;;;;;;;;;;;35.50;38.30;;;;;;4956022;29;20023;-66
2023/09/14 12:28:37;;;;;;;;;;;35.50;36.80;;;;;;4956124;29;20350;-68
2023/09/14 12:31:02;;;;;;;;;;;35.60;37.70;;;;;;4956360;29;20007;-64
2023/09/14 12:33:28;;;;;;;;;;;35.90;36.90;;;;;;4956052;29;20009;-67
2023/09/14 12:35:54;;;;;;;;;;;35.80;35.60;;;;;;4956380;29;19987;-69
2023/09/14 12:38:19;;;;;;;;;;;35.50;38.20;;;;;;4956116;29;20361;-65
2023/09/14 12:40:46;;;;;;;;;;;35.60;36.40;;;;;;4955885;29;19988;-62
2023/09/14 12:43:13;;;;;;;;;;;35.40;36.80;;;;;;4955784;29;19990;-69
2023/09/14 12:45:39;;;;;;;;;;;35.50;37.50;;;;;;4955889;29;19988;-68
2023/09/14 12:48:07;;;;;;;;;;;35.70;36.80;;;;;;4956084;29;19992;-65
2023/09/14 12:50:34;;;;;;;;;;;36.10;36.90;;;;;;4956126;29;20362;-63
2023/09/14 12:53:05;;;;;;;;;;;36.20;37.00;;;;;;4955881;29;19991;-67
2023/09/14 12:55:31;;;;;;;;;;;36.40;36.50;;;;;;4955737;29;20438;-64
2023/09/14 12:57:57;;;;;;;;;;;36.50;35.70;;;;;;4955662;29;19984;-64
2023/09/14 13:00:24;;;;;;;;;;;36.50;35.90;;;;;;4955774;29;19984;-66
2023/09/14 13:02:50;;;;;;;;;;;36.40;35.80;;;;;;4955602;29;20074;-68
2023/09/14 13:05:16;;;;;;;;;;;36.30;36.10;;;;;;4955712;29;20039;-64
2023/09/14 13:07:47;;;;;;;;;;;36.30;35.60;;;;;;4955950;29;19988;-64
2023/09/14 13:10:13;;;;;;;;;;;36.20;37.60;;;;;;4955809;29;20080;-65
2023/09/14 13:12:48;;;;;;;;;;;36.10;36.00;;;;;;4954743;28;20042;-64
2023/09/14 13:15:18;;;;;;;;;;;36.30;36.00;;;;;;4955907;29;19990;-67
2023/09/14 13:17:43;;;;;;;;;;;36.50;34.60;;;;;;4955458;29;20445;-67
2023/09/14 13:20:09;;;;;;;;;;;36.60;35.40;;;;;;4955789;29;19995;-64
2023/09/14 13:22:36;;;;;;;;;;;36.50;35.60;;;;;;4955796;29;19991;-67
2023/09/14 13:25:01;;;;;;;;;;;36.20;35.10;;;;;;4955409;29;20442;-64
2023/09/14 13:27:30;;;;;;;;;;;36.00;36.10;;;;;;4955607;29;19995;-67
2023/09/14 13:29:55;;;;;;;;;;;36.10;35.50;;;;;;4955361;29;20011;-65
2023/09/14 13:32:21;;;;;;;;;;;36.40;34.20;;;;;;4955315;29;19992;-66
2023/09/14 13:34:47;;;;;;;;;;;36.20;36.30;;;;;;4955448;29;19994;-65
2023/09/14 13:37:12;;;;;;;;;;;36.50;34.20;;;;;;4955415;29;19984;-71
2023/09/14 13:39:38;;;;;;;;;;;36.60;34.40;;;;;;4955235;29;20075;-64
2023/09/14 13:42:03;;;;;;;;;;;36.70;34.30;;;;;;4955205;29;20031;-67
2023/09/14 13:44:29;;;;;;;;;;;36.70;35.70;;;;;;4955476;29;20034;-68
2023/09/14 13:46:54;;;;;;;;;;;36.70;34.60;;;;;;4955343;29;20391;-67
2023/09/14 13:49:20;;;;;;;;;;;36.70;33.50;;;;;;4955473;29;20555;-69
2023/09/14 13:51:45;;;;;;;;;;;36.80;33.90;;;;;;4955351;29;19984;-64
2023/09/14 13:54:11;;;;;;;;;;;36.40;34.60;;;;;;4955298;29;19983;-65
2023/09/14 13:56:36;;;;;;;;;;;35.80;34.90;;;;;;4954980;29;19991;-68
2023/09/14 13:59:02;;;;;;;;;;;35.70;34.40;;;;;;4955364;29;19991;-62
2023/09/14 14:01:27;;;;;;;;;;;35.90;35.30;;;;;;4955260;29;19983;-68
2023/09/14 14:03:53;;;;;;;;;;;36.10;34.70;;;;;;4955099;29;20066;-61
2023/09/14 14:06:19;;;;;;;;;;;36.40;34.00;;;;;;4955330;29;20086;-65
2023/09/14 14:08:44;;;;;;;;;;;36.40;35.50;;;;;;4955210;29;19987;-64
2023/09/14 14:11:10;;;;;;;;;;;36.20;34.80;;;;;;4954923;29;20023;-67
2023/09/14 14:13:35;;;;;;;;;;;36.00;35.10;;;;;;4954739;28;20038;-63
2023/09/14 14:16:02;;;;;;;;;;;35.80;35.60;;;;;;4955163;29;19984;-63
2023/09/14 14:18:27;;;;;;;;;;;35.60;35.40;;;;;;4955146;29;19983;-61
2023/09/14 14:20:53;;;;;;;;;;;35.50;36.40;;;;;;4955166;29;20456;-63
2023/09/14 14:23:19;;;;;;;;;;;35.20;37.80;;;;;;4955053;29;19983;-66
2023/09/14 14:25:45;;;;;;;;;;;34.80;38.30;;;;;;4956954;28;19992;-64
2023/09/14 14:28:10;;;;;;;;;;;34.70;38.90;;;;;;4958280;29;19984;-65
2023/09/14 14:30:36;;;;;;;;;;;34.80;39.40;;;;;;4958346;29;20013;-70
2023/09/14 14:33:02;;;;;;;;;;;35.00;39.90;;;;;;4958399;29;19990;-65
2023/09/14 14:35:28;;;;;;;;;;;35.10;39.70;;;;;;4957323;29;19984;-62
2023/09/14 14:37:53;;;;;;;;;;;35.10;39.30;;;;;;4955982;29;20033;-64
2023/09/14 14:40:19;;;;;;;;;;;34.80;39.00;;;;;;4958170;28;19983;-67
2023/09/14 14:42:44;;;;;;;;;;;34.50;39.40;;;;;;4958085;28;19995;-67
2023/09/14 14:45:10;;;;;;;;;;;34.30;39.50;;;;;;4958196;28;20422;-65
2023/09/14 14:47:35;;;;;;;;;;;34.10;40.40;;;;;;4958143;29;20032;-64
2023/09/14 14:50:01;;;;;;;;;;;34.00;40.10;;;;;;4957967;29;20053;-69
2023/09/14 14:52:27;;;;;;;;;;;33.70;40.30;;;;;;4957947;28;20538;-64
2023/09/14 14:54:52;;;;;;;;;;;33.50;40.80;;;;;;4958030;29;19987;-63
2023/09/14 14:57:18;;;;;;;;;;;33.50;41.30;;;;;;4957861;28;19984;-66
2023/09/14 14:59:43;;;;;;;;;;;33.40;41.00;;;;;;4957712;29;19991;-66
2023/09/14 15:02:09;;;;;;;;;;;33.20;41.40;;;;;;4957939;29;20082;-68
2023/09/14 15:04:35;;;;;;;;;;;33.00;41.60;;;;;;4957808;28;19992;-68
2023/09/14 15:07:00;;;;;;;;;;;32.90;41.70;;;;;;4957601;28;20035;-63
2023/09/14 15:09:27;;;;;;;;;;;32.70;41.80;;;;;;4957556;28;20089;-64
2023/09/14 15:11:54;;;;;;;;;;;32.40;42.80;;;;;;4957736;28;20024;-65
2023/09/14 15:14:20;;;;;;;;;;;32.20;43.10;;;;;;4957571;28;20357;-68
2023/09/14 15:16:46;;;;;;;;;;;32.10;43.80;;;;;;4957825;28;20037;-64
2023/09/14 15:19:12;;;;;;;;;;;31.80;44.40;;;;;;4957540;28;20039;-67
2023/09/14 15:21:37;;;;;;;;;;;31.70;43.90;;;;;;4957456;28;19987;-62
2023/09/14 15:24:03;;;;;;;;;;;31.50;44.50;;;;;;4957412;29;19983;-68
2023/09/14 15:26:28;;;;;;;;;;;31.40;44.50;;;;;;4957427;29;19990;-66
2023/09/14 15:28:56;;;;;;;;;;;31.40;45.00;;;;;;4957606;29;20477;-66
2023/09/14 15:31:23;;;;;;;;;;;31.30;44.40;;;;;;4957222;28;20039;-64
2023/09/14 15:33:48;;;;;;;;;;;31.20;44.60;;;;;;4957523;28;19987;-62
2023/09/14 15:36:14;;;;;;;;;;;31.20;45.40;;;;;;4956552;28;20350;-66
2023/09/14 15:38:41;;;;;;;;;;;31.20;46.30;;;;;;4956894;28;19994;-64
2023/09/14 15:41:14;;;;;;;;;;;31.00;46.00;;;;;;4957199;28;20010;-69
2023/09/14 15:43:41;;;;;;;;;;;30.90;45.90;;;;;;4957070;28;19988;-67
2023/09/14 15:46:06;;;;;;;;;;;30.90;46.80;;;;;;4957158;28;19988;-63
2023/09/14 15:48:33;;;;;;;;;;;30.80;46.20;;;;;;4956892;28;20006;-66
2023/09/14 15:50:58;;;;;;;;;;;30.80;46.90;;;;;;4956920;28;20421;-67
2023/09/14 15:53:24;;;;;;;;;;;30.60;47.60;;;;;;4956609;28;20030;-64
2023/09/14 15:55:53;;;;;;;;;;;30.40;48.70;;;;;;4956932;28;19989;-65
2023/09/14 15:58:18;;;;;;;;;;;30.10;48.60;;;;;;4956745;28;20011;-67
2023/09/14 16:00:47;;;;;;;;;;;29.90;49.00;;;;;;4956691;28;19984;-67
2023/09/14 16:03:12;;;;;;;;;;;29.50;50.70;;;;;;4956766;29;19984;-61
2023/09/14 16:05:38;;;;;;;;;;;29.20;51.60;;;;;;4956902;29;19994;-64
2023/09/14 16:08:05;;;;;;;;;;;29.00;51.40;;;;;;4956346;29;20051;-65
2023/09/14 16:10:31;;;;;;;;;;;29.20;51.70;;;;;;4956597;28;20007;-66
2023/09/14 16:12:57;;;;;;;;;;;29.10;52.00;;;;;;4956387;28;20026;-64
2023/09/14 16:15:22;;;;;;;;;;;28.90;52.80;;;;;;4956664;28;19987;-68
2023/09/14 16:17:48;;;;;;;;;;;28.80;53.50;;;;;;4956384;29;20126;-64
2023/09/14 16:20:14;;;;;;;;;;;28.80;53.20;;;;;;4956448;28;19991;-66
2023/09/14 16:22:39;;;;;;;;;;;28.90;53.20;;;;;;4956115;28;19987;-63
2023/09/14 16:25:05;;;;;;;;;;;29.00;53.50;;;;;;4956021;29;19983;-64
2023/09/14 16:27:31;;;;;;;;;;;29.10;53.10;;;;;;4956222;28;20090;-65
2023/09/14 16:29:56;;;;;;;;;;;29.10;52.80;;;;;;4956142;28;20011;-65
2023/09/14 16:32:22;;;;;;;;;;;29.00;53.00;;;;;;4956097;29;20030;-62
2023/09/14 16:34:47;;;;;;;;;;;28.80;53.30;;;;;;4955927;29;19991;-65
2023/09/14 16:37:13;;;;;;;;;;;28.80;53.70;;;;;;4955288;29;19993;-64
2023/09/14 16:39:39;;;;;;;;;;;28.80;53.70;;;;;;4955983;29;20034;-62
2023/09/14 16:42:05;;;;;;;;;;;28.80;54.20;;;;;;4956213;29;19992;-65
2023/09/14 16:44:31;;;;;;;;;;;28.80;54.20;;;;;;4955963;29;20038;-66
2023/09/14 16:46:57;;;;;;;;;;;28.80;53.90;;;;;;4955625;28;19984;-66
2023/09/14 16:49:27;;;;;;;;;;;28.70;54.30;;;;;;4955539;29;20007;-69
2023/09/14 16:51:53;;;;;;;;;;;28.60;55.10;;;;;;4955653;29;19987;-64
2023/09/14 16:54:19;;;;;;;;;;;28.40;53.20;;;;;;4956100;29;19987;-68
2023/09/14 16:56:45;;;;;;;;;;;28.30;53.90;;;;;;4955985;29;19991;-66
2023/09/14 16:59:11;;;;;;;;;;;28.30;53.70;;;;;;4955858;29;20350;-68
2023/09/14 17:01:37;;;;;;;;;;;28.20;54.10;;;;;;4956046;29;19987;-63
2023/09/14 17:04:04;;;;;;;;;;;28.20;54.90;;;;;;4955752;29;19990;-65
2023/09/14 17:06:30;;;;;;;;;;;28.10;55.40;;;;;;4955413;29;19994;-64
2023/09/14 17:08:56;;;;;;;;;;;28.00;55.90;;;;;;4938527;29;19987;-65
2023/09/14 17:11:21;;;;;;;;;;;27.80;56.60;;;;;;4955557;29;20109;-65
2023/09/14 17:13:47;;;;;;;;;;;27.50;57.20;;;;;;4955373;29;20024;-63
2023/09/14 17:16:12;;;;;;;;;;;27.40;57.70;;;;;;4955606;29;20019;-66
2023/09/14 17:18:38;;;;;;;;;;;27.40;57.00;;;;;;4955541;29;19983;-67
2023/09/14 17:21:03;;;;;;;;;;;27.40;56.40;;;;;;4955419;29;19983;-66
2023/09/14 17:23:29;;;;;;;;;;;27.40;55.80;;;;;;4955856;29;19988;-66
2023/09/14 17:25:55;;;;;;;;;;;27.50;54.90;;;;;;4955483;29;19987;-66
2023/09/14 17:28:21;;;;;;;;;;;27.50;55.40;;;;;;4955572;29;20037;-66
2023/09/14 17:30:47;;;;;;;;;;;27.60;54.80;;;;;;4955561;29;20476;-68
2023/09/14 17:33:13;;;;;;;;;;;27.50;56.10;;;;;;4955748;29;20078;-67
2023/09/14 17:35:38;;;;;;;;;;;27.20;57.30;;;;;;4954794;29;20351;-66
2023/09/14 17:38:04;;;;;;;;;;;27.10;55.60;;;;;;4955381;29;20380;-65
2023/09/14 17:40:31;;;;;;;;;;;27.20;55.10;;;;;;4955407;29;20078;-60
2023/09/14 17:42:57;;;;;;;;;;;27.00;55.90;;;;;;4955377;29;19984;-65
2023/09/14 17:45:22;;;;;;;;;;;27.00;55.80;;;;;;4955621;29;20456;-65
2023/09/14 17:47:48;;;;;;;;;;;27.00;55.50;;;;;;4955404;29;20130;-63
2023/09/14 17:50:14;;;;;;;;;;;27.00;55.90;;;;;;4955268;29;20610;-66
2023/09/14 17:52:40;;;;;;;;;;;27.00;56.00;;;;;;4955414;29;20071;-64
2023/09/14 17:55:06;;;;;;;;;;;27.00;56.10;;;;;;4955387;29;19987;-67
2023/09/14 17:57:31;;;;;;;;;;;27.00;56.50;;;;;;4955195;29;19988;-67
2023/09/14 17:59:57;;;;;;;;;;;27.00;56.30;;;;;;4957654;28;19987;-66
2023/09/14 18:02:22;;;;;;;;;;;27.00;56.80;;;;;;4958926;29;19984;-66
2023/09/14 18:04:49;;;;;;;;;;;27.00;57.00;;;;;;4958592;29;20070;-66
2023/09/14 18:07:15;;;;;;;;;;;26.90;57.20;;;;;;4958906;29;19992;-68
2023/09/14 18:09:41;;;;;;;;;;;26.90;57.70;;;;;;4958854;29;20485;-66
2023/09/14 18:12:07;;;;;;;;;;;26.80;57.70;;;;;;4958390;29;20143;-64
2023/09/14 18:14:32;;;;;;;;;;;26.80;58.50;;;;;;4958713;29;19987;-64
2023/09/14 18:16:59;;;;;;;;;;;26.60;58.90;;;;;;4958463;29;19991;-67
2023/09/14 18:19:29;;;;;;;;;;;26.50;59.40;;;;;;4958702;29;19995;-63
2023/09/14 18:21:55;;;;;;;;;;;26.40;58.90;;;;;;4958866;29;19987;-67
2023/09/14 18:24:20;;;;;;;;;;;26.50;59.70;;;;;;4958545;29;20074;-62
2023/09/14 18:26:46;;;;;;;;;;;26.50;59.50;;;;;;4958805;29;20035;-61
2023/09/14 18:29:13;;;;;;;;;;;26.50;59.70;;;;;;4958335;29;20106;-67
2023/09/14 18:31:39;;;;;;;;;;;26.50;60.80;;;;;;4958718;29;19987;-63
2023/09/14 18:34:05;;;;;;;;;;;26.50;59.70;;;;;;4958394;29;20504;-66
2023/09/14 18:36:31;;;;;;;;;;;26.50;59.60;;;;;;4958216;29;20081;-66
2023/09/14 18:38:57;;;;;;;;;;;26.50;59.70;;;;;;4958353;29;19983;-66
2023/09/14 18:41:22;;;;;;;;;;;26.50;59.60;;;;;;4958267;29;19983;-67
2023/09/14 18:43:48;;;;;;;;;;;26.50;60.30;;;;;;4958153;29;19983;-68
2023/09/14 18:46:15;;;;;;;;;;;26.50;60.20;;;;;;4957944;29;20326;-63
2023/09/14 18:48:42;;;;;;;;;;;26.40;60.70;;;;;;4958141;29;19988;-63
2023/09/14 18:51:07;;;;;;;;;;;26.40;60.30;;;;;;4958175;29;20338;-65
2023/09/14 18:53:33;;;;;;;;;;;26.40;61.40;;;;;;4958119;29;19988;-67
2023/09/14 18:55:58;;;;;;;;;;;26.40;61.00;;;;;;4943338;29;20414;-66
2023/09/14 18:58:24;;;;;;;;;;;26.40;62.30;;;;;;4938800;29;19988;-64
2023/09/14 19:00:50;;;;;;;;;;;26.30;62.80;;;;;;4938777;29;19991;-64
2023/09/14 19:03:15;;;;;;;;;;;26.20;62.40;;;;;;4938606;29;20354;-66
2023/09/14 19:05:41;;;;;;;;;;;26.20;63.30;;;;;;4938628;29;19984;-66
2023/09/14 19:08:07;;;;;;;;;;;26.20;63.80;;;;;;4938658;29;19992;-62
2023/09/14 19:10:32;;;;;;;;;;;26.10;65.50;;;;;;4937600;29;20522;-65
2023/09/14 19:12:58;;;;;;;;;;;26.10;66.60;;;;;;4938273;29;20030;-67
2023/09/14 19:15:25;;;;;;;;;;;26.00;67.00;;;;;;4938207;29;20354;-61
2023/09/14 19:17:50;;;;;;;;;;;26.10;67.60;;;;;;4938516;29;20452;-64
2023/09/14 19:20:16;;;;;;;;;;;26.10;69.50;;;;;;4938423;29;19984;-64
2023/09/14 19:22:42;;;;;;;;;;;26.10;69.80;;;;;;4938493;29;20413;-65
2023/09/14 19:25:07;;;;;;;;;;;26.10;71.70;;;;;;4938290;29;19984;-65
2023/09/14 19:27:33;;;;;;;;;;;26.10;72.10;;;;;;4938253;29;20022;-66
2023/09/14 19:29:59;;;;;;;;;;;26.10;74.80;;;;;;4920954;29;20063;-64
2023/09/14 19:32:24;;;;;;;;;;;26.10;74.10;;;;;;4938049;29;19991;-66
2023/09/14 19:34:51;;;;;;;;;;;26.10;73.60;;;;;;4938208;29;20082;-68
2023/09/14 19:37:16;;;;;;;;;;;26.10;74.30;;;;;;4938077;29;20493;-63
2023/09/14 19:39:47;;;;;;;;;;;26.00;75.20;;;;;;4937935;29;19984;-62
2023/09/14 19:42:13;;;;;;;;;;;26.00;76.00;;;;;;4937977;29;19992;-62
2023/09/14 19:44:38;;;;;;;;;;;25.90;75.10;;;;;;4937784;29;19984;-67
2023/09/14 19:47:04;;;;;;;;;;;25.80;76.50;;;;;;4937811;29;20498;-61
2023/09/14 19:49:29;;;;;;;;;;;25.80;77.30;;;;;;4937954;29;20520;-65
2023/09/14 19:51:55;;;;;;;;;;;25.80;77.50;;;;;;4937735;29;19992;-65
2023/09/14 19:54:20;;;;;;;;;;;25.70;77.30;;;;;;4937659;29;19984;-65
2023/09/14 19:56:46;;;;;;;;;;;25.70;79.10;;;;;;4937695;29;20027;-66
2023/09/14 19:59:11;;;;;;;;;;;25.50;80.60;;;;;;4937589;29;19988;-64
2023/09/14 20:01:38;;;;;;;;;;;25.50;81.30;;;;;;4937585;29;20013;-62
2023/09/14 20:04:04;;;;;;;;;;;25.40;81.20;;;;;;4937516;29;20010;-64
2023/09/14 20:06:30;;;;;;;;;;;25.50;79.70;;;;;;4937532;29;20438;-61
2023/09/14 20:08:56;;;;;;;;;;;25.50;79.70;;;;;;4937508;29;20000;-66
2023/09/14 20:11:21;;;;;;;;;;;25.50;81.90;;;;;;4937260;29;20039;-64
2023/09/14 20:13:47;;;;;;;;;;;25.40;81.60;;;;;;4936977;29;20117;-62
2023/09/14 20:16:12;;;;;;;;;;;25.40;85.20;;;;;;4937434;29;19987;-66
2023/09/14 20:18:41;;;;;;;;;;;25.40;87.40;;;;;;4937159;29;19988;-66
2023/09/14 20:21:07;;;;;;;;;;;25.30;88.60;;;;;;4937256;29;19984;-63
2023/09/14 20:23:33;;;;;;;;;;;25.30;86.50;;;;;;4937203;29;19984;-65